TimeCDT,TemperatureF,Dew PointF,Humidity,Sea Level PressureIn,VisibilityMPH,Wind Direction,Wind SpeedMPH,Gust SpeedMPH,PrecipitationIn,Events,Conditions,WindDirDegrees,DateUTC
12:15 AM,55.4,50.0,82,30.04,10.0,WNW,9.2,-,N/A,,Clear,300,2013-06-17 05:15:00
12:35 AM,55.4,50.0,82,30.04,10.0,WNW,9.2,-,N/A,,Clear,300,2013-06-17 05:35:00
12:55 AM,55.4,50.0,82,30.05,10.0,NW,9.2,-,N/A,,Clear,310,2013-06-17 05:55:00
1:15 AM,55.4,50.0,82,30.05,10.0,NW,6.9,-,N/A,,Clear,310,2013-06-17 06:15:00
1:35 AM,55.4,50.0,82,30.05,10.0,NW,6.9,-,N/A,,Clear,310,2013-06-17 06:35:00
1:55 AM,55.4,50.0,82,30.06,10.0,WNW,3.5,-,N/A,,Clear,290,2013-06-17 06:55:00
2:15 AM,51.8,50.0,94,30.07,10.0,Calm,Calm,-,N/A,,Clear,0,2013-06-17 07:15:00
2:35 AM,53.6,50.0,88,30.06,10.0,WNW,5.8,-,N/A,,Clear,290,2013-06-17 07:35:00
2:55 AM,53.6,50.0,88,30.07,10.0,Calm,Calm,-,N/A,,Clear,0,2013-06-17 07:55:00
3:15 AM,51.8,50.0,94,30.07,10.0,Calm,Calm,-,N/A,,Clear,0,2013-06-17 08:15:00
3:35 AM,50.0,50.0,100,30.07,10.0,Calm,Calm,-,N/A,,Clear,0,2013-06-17 08:35:00
3:55 AM,50.0,48.2,94,30.06,10.0,NNW,5.8,-,N/A,,Clear,330,2013-06-17 08:55:00
4:15 AM,50.0,50.0,100,30.06,10.0,NNW,3.5,-,N/A,,Clear,330,2013-06-17 09:15:00
4:35 AM,50.0,50.0,100,30.07,10.0,NW,4.6,-,N/A,,Clear,320,2013-06-17 09:35:00
4:55 AM,48.2,48.2,100,30.07,10.0,Calm,Calm,-,N/A,,Clear,0,2013-06-17 09:55:00
5:15 AM,48.2,48.2,100,30.07,10.0,Calm,Calm,-,N/A,,Scattered Clouds,0,2013-06-17 10:15:00
5:35 AM,48.2,48.2,100,30.08,10.0,South,3.5,-,N/A,,Mostly Cloudy,180,2013-06-17 10:35:00
5:55 AM,50.0,50.0,100,30.08,10.0,Calm,Calm,-,N/A,,Overcast,0,2013-06-17 10:55:00
6:15 AM,51.8,51.8,100,30.08,10.0,Calm,Calm,-,N/A,,Overcast,0,2013-06-17 11:15:00
6:35 AM,51.8,51.8,100,30.09,10.0,Calm,Calm,-,N/A,,Overcast,0,2013-06-17 11:35:00
6:55 AM,53.6,53.6,100,30.10,10.0,Calm,Calm,-,N/A,,Overcast,0,2013-06-17 11:55:00
7:15 AM,53.6,53.6,100,30.10,10.0,NW,5.8,-,N/A,,Overcast,320,2013-06-17 12:15:00
7:35 AM,53.6,53.6,100,30.10,8.0,WNW,5.8,-,N/A,,Overcast,300,2013-06-17 12:35:00
7:55 AM,53.6,53.6,100,30.11,9.0,WNW,4.6,-,N/A,,Overcast,290,2013-06-17 12:55:00
8:15 AM,53.6,53.6,100,30.11,3.0,West,3.5,-,N/A,,Overcast,280,2013-06-17 13:15:00
8:35 AM,53.6,53.6,100,30.12,9.0,Calm,Calm,-,N/A,,Overcast,0,2013-06-17 13:35:00
8:55 AM,53.6,53.6,100,30.12,10.0,NW,3.5,-,N/A,,Overcast,310,2013-06-17 13:55:00
9:15 AM,55.4,53.6,94,30.12,10.0,NNW,3.5,-,N/A,,Overcast,340,2013-06-17 14:15:00
9:35 AM,55.4,53.6,94,30.12,10.0,NW,3.5,-,N/A,,Overcast,320,2013-06-17 14:35:00
9:55 AM,57.2,53.6,88,30.12,10.0,Calm,Calm,-,N/A,,Overcast,0,2013-06-17 14:55:00
10:15 AM,57.2,53.6,88,30.12,10.0,Calm,Calm,-,N/A,,Overcast,0,2013-06-17 15:15:00
10:35 AM,57.2,53.6,88,30.12,10.0,North,4.6,-,N/A,,Overcast,10,2013-06-17 15:35:00
10:55 AM,57.2,53.6,88,30.12,10.0,Calm,Calm,-,N/A,,Overcast,0,2013-06-17 15:55:00
11:15 AM,59.0,53.6,82,30.13,10.0,North,3.5,-,N/A,,Overcast,10,2013-06-17 16:15:00
11:35 AM,59.0,53.6,82,30.13,10.0,NW,4.6,-,N/A,,Mostly Cloudy,320,2013-06-17 16:35:00
11:55 AM,60.8,53.6,77,30.13,10.0,North,4.6,-,N/A,,Mostly Cloudy,360,2013-06-17 16:55:00
12:15 PM,59.0,53.6,82,30.13,10.0,Calm,Calm,-,N/A,,Mostly Cloudy,0,2013-06-17 17:15:00
12:35 PM,60.8,53.6,77,30.13,10.0,SSW,3.5,-,N/A,,Mostly Cloudy,210,2013-06-17 17:35:00
12:55 PM,60.8,53.6,77,30.12,10.0,SSW,3.5,-,N/A,,Mostly Cloudy,210,2013-06-17 17:55:00
1:15 PM,62.6,53.6,72,30.12,10.0,SW,4.6,-,N/A,,Scattered Clouds,220,2013-06-17 18:15:00
1:35 PM,62.6,53.6,72,30.11,10.0,SW,6.9,-,N/A,,Partly Cloudy,220,2013-06-17 18:35:00
1:55 PM,64.4,53.6,68,30.11,10.0,WSW,5.8,-,N/A,,Clear,240,2013-06-17 18:55:00
2:15 PM,66.2,53.6,64,30.10,10.0,WSW,4.6,-,N/A,,Partly Cloudy,250,2013-06-17 19:15:00
2:35 PM,66.2,53.6,64,30.10,10.0,WSW,6.9,-,N/A,,Partly Cloudy,250,2013-06-17 19:35:00
2:55 PM,64.4,51.8,64,30.10,10.0,NNE,12.7,-,N/A,,Mostly Cloudy,30,2013-06-17 19:55:00
3:15 PM,62.6,51.8,68,30.10,10.0,NE,8.1,-,N/A,,Mostly Cloudy,50,2013-06-17 20:15:00
3:35 PM,62.6,53.6,72,30.11,10.0,NNE,8.1,-,N/A,,Overcast,20,2013-06-17 20:35:00
3:55 PM,64.4,53.6,68,30.10,10.0,NNE,6.9,-,N/A,,Mostly Cloudy,30,2013-06-17 20:55:00
4:15 PM,64.4,53.6,68,30.10,10.0,NNE,6.9,-,N/A,,Scattered Clouds,20,2013-06-17 21:15:00
4:35 PM,64.4,51.8,64,30.10,10.0,North,6.9,-,N/A,,Mostly Cloudy,10,2013-06-17 21:35:00
4:55 PM,64.4,51.8,64,30.10,10.0,NNE,6.9,-,N/A,,Mostly Cloudy,20,2013-06-17 21:55:00
5:15 PM,64.4,53.6,68,30.10,10.0,NNE,6.9,-,N/A,,Mostly Cloudy,20,2013-06-17 22:15:00
5:35 PM,66.2,51.8,60,30.10,10.0,NE,4.6,-,N/A,,Mostly Cloudy,40,2013-06-17 22:35:00
5:55 PM,66.2,50.0,56,30.09,10.0,Calm,Calm,-,N/A,,Mostly Cloudy,0,2013-06-17 22:55:00
6:15 PM,66.2,50.0,56,30.09,10.0,NE,5.8,-,N/A,,Mostly Cloudy,50,2013-06-17 23:15:00
6:35 PM,66.2,48.2,52,30.09,10.0,North,5.8,-,N/A,,Partly Cloudy,10,2013-06-17 23:35:00
6:55 PM,68.0,48.2,49,30.08,10.0,Calm,Calm,-,N/A,,Clear,0,2013-06-17 23:55:00
7:15 PM,68.0,50.0,52,30.07,10.0,NE,5.8,-,N/A,,Clear,40,2013-06-18 00:15:00
7:35 PM,66.2,48.2,52,30.07,10.0,ESE,4.6,-,N/A,,Clear,110,2013-06-18 00:35:00
7:55 PM,66.2,51.8,60,30.07,10.0,NE,4.6,-,N/A,,Clear,40,2013-06-18 00:55:00
8:15 PM,66.2,51.8,60,30.07,10.0,ENE,3.5,-,N/A,,Scattered Clouds,70,2013-06-18 01:15:00
8:35 PM,66.2,51.8,60,30.07,10.0,East,6.9,-,N/A,,Mostly Cloudy,80,2013-06-18 01:35:00
8:55 PM,64.4,50.0,59,30.07,10.0,ENE,5.8,-,N/A,,Partly Cloudy,70,2013-06-18 01:55:00
9:15 PM,64.4,51.8,64,30.07,10.0,East,3.5,-,N/A,,Clear,80,2013-06-18 02:15:00
9:35 PM,62.6,51.8,68,30.07,10.0,East,4.6,-,N/A,,Clear,80,2013-06-18 02:35:00
9:55 PM,57.2,51.8,82,30.07,10.0,East,3.5,-,N/A,,Clear,100,2013-06-18 02:55:00
10:15 PM,55.4,50.0,82,30.08,10.0,East,4.6,-,N/A,,Clear,100,2013-06-18 03:15:00
10:35 PM,53.6,50.0,88,30.08,10.0,East,5.8,-,N/A,,Clear,100,2013-06-18 03:35:00
10:55 PM,53.6,50.0,88,30.09,10.0,ESE,8.1,-,N/A,,Clear,110,2013-06-18 03:55:00
11:15 PM,53.6,50.0,88,30.09,10.0,SE,8.1,-,N/A,,Clear,130,2013-06-18 04:15:00
11:35 PM,53.6,50.0,88,30.09,10.0,SE,8.1,-,N/A,,Clear,130,2013-06-18 04:35:00
11:55 PM,53.6,50.0,88,30.09,10.0,ESE,6.9,-,N/A,,Clear,120,2013-06-18 04:55:00